createdAt,value
2022-12-08T15:22:56.216Z,45.42
2022-12-08T15:25:22.615Z,45.12
2022-12-08T15:27:50.785Z,44.39
2022-12-08T15:30:17.319Z,42.90
2022-12-08T15:32:43.725Z,41.36
2022-12-08T15:35:10.131Z,41.24
2022-12-08T15:37:36.500Z,39.78
2022-12-08T15:40:03.544Z,38.31
2022-12-08T15:42:30.213Z,38.33
2022-12-08T15:44:56.616Z,35.77
2022-12-08T15:47:22.988Z,35.75
2022-12-08T15:49:49.369Z,34.91
2022-12-08T15:52:15.735Z,33.02
2022-12-08T15:54:42.122Z,31.76
2022-12-08T15:57:19.525Z,30.04
2022-12-08T15:59:51.554Z,29.68
2022-12-08T16:02:22.347Z,29.02
2022-12-08T20:27:27.678Z,76.70
2022-12-08T20:29:54.088Z,74.48
2022-12-08T20:32:20.501Z,72.21
2022-12-08T20:34:46.920Z,65.25
2022-12-08T20:37:13.294Z,66.48
2022-12-08T20:39:39.716Z,66.69
2022-12-08T20:42:06.102Z,64.78
2022-12-08T20:44:32.471Z,64.91
2022-12-08T20:46:58.862Z,63.47
2022-12-08T20:49:28.517Z,62.81
2022-12-08T20:51:59.344Z,60.89
2022-12-08T20:54:25.772Z,60.34
2022-12-08T20:56:52.317Z,59.41
2022-12-08T20:59:18.895Z,59.38
2022-12-08T21:01:45.476Z,59.39
2022-12-08T21:04:12.205Z,58.34
2022-12-08T21:06:38.846Z,56.96
2022-12-08T21:09:05.372Z,56.68
2022-12-08T21:11:31.984Z,55.92
2022-12-08T21:13:58.518Z,54.68
2022-12-08T21:16:25.135Z,54.14
2022-12-08T21:18:51.693Z,54.30
2022-12-08T21:21:18.197Z,52.49
2022-12-08T21:23:44.715Z,51.38
2022-12-08T21:26:11.164Z,52.02
2022-12-08T21:28:37.911Z,50.24
2022-12-08T21:31:04.326Z,50.84
2022-12-08T21:33:31.045Z,49.92
2022-12-08T21:35:57.798Z,49.30
2022-12-08T21:38:24.388Z,49.37
2022-12-08T21:40:50.803Z,48.14
2022-12-08T21:43:17.183Z,47.34
2022-12-08T21:45:43.644Z,47.41
2022-12-08T21:48:11.869Z,47.42
2022-12-08T21:50:38.678Z,46.04
2022-12-08T21:53:05.233Z,46.40
2022-12-08T21:55:31.895Z,45.40
2022-12-08T21:57:58.445Z,45.32
2022-12-08T22:00:24.924Z,44.16
2022-12-08T22:02:51.750Z,44.16
2022-12-08T22:05:18.336Z,43.23
2022-12-08T22:07:44.832Z,42.60
2022-12-08T22:10:11.791Z,41.87
2022-12-08T22:12:38.597Z,41.69
2022-12-08T22:15:04.974Z,40.44
2022-12-08T22:17:31.465Z,39.01
2022-12-08T22:19:57.971Z,38.97
2022-12-08T22:22:24.526Z,36.46
2022-12-08T22:24:50.946Z,34.83
2022-12-08T22:27:17.334Z,34.37
2022-12-08T22:29:43.746Z,33.87
2022-12-08T22:32:10.357Z,32.48
2022-12-08T22:34:36.831Z,31.93
2022-12-08T22:37:03.201Z,31.45
2022-12-08T22:39:29.720Z,29.97
2022-12-08T22:41:56.129Z,29.34
2022-12-08T22:44:22.507Z,27.52
2022-12-08T22:46:48.948Z,27.46
2022-12-08T22:49:15.330Z,27.62
2022-12-08T22:51:41.736Z,26.85
2022-12-08T22:54:08.136Z,26.02
2022-12-08T22:56:34.507Z,26.01
2022-12-08T22:59:01.007Z,26.09
2022-12-08T23:01:27.465Z,27.35
2022-12-08T23:03:54.201Z,27.18
2022-12-08T23:06:21.041Z,29.06
2022-12-08T23:08:47.648Z,28.56
2022-12-08T23:11:14.396Z,28.67
2022-12-08T23:13:40.928Z,28.17
2022-12-08T23:16:07.357Z,27.88
2022-12-08T23:18:33.922Z,27.92
2022-12-08T23:21:00.325Z,28.11
2022-12-08T23:23:26.802Z,27.34
2022-12-08T23:25:53.361Z,26.87
2022-12-08T23:28:19.790Z,25.73
2022-12-08T23:30:46.210Z,26.54
2022-12-08T23:33:12.796Z,25.27
2022-12-08T23:35:39.415Z,25.74
2022-12-08T23:38:05.851Z,24.74
2022-12-08T23:40:32.350Z,25.15
2022-12-08T23:42:58.755Z,24.68
2022-12-08T23:45:25.169Z,24.83
2022-12-08T23:47:51.815Z,23.61
2022-12-08T23:50:18.276Z,23.72
2022-12-08T23:52:44.828Z,22.92
2022-12-08T23:55:11.338Z,22.81
2022-12-08T23:57:37.759Z,22.84
